Time;durP1;ratioP1;P1;durP2;ratioP2;P2;SDS_P1;SDS_P2;PMS_P1;PMS_P2;Temp;Humidity;BMP_temperature;BMP_pressure;BME280_temperature;BME280_humidity;BME280_pressure;Samples;Min_cycle;Max_cycle;Signal;HPM_P1;HPM_P2
2021/11/13 00:00:21;;;;;;;32.17;25.33;;;7.10;99.90;;;;;;5072894;28;20585;-70
2021/11/13 00:02:48;;;;;;;27.13;24.40;;;7.10;99.90;;;;;;5078468;28;20459;-70
2021/11/13 00:05:16;;;;;;;35.67;25.50;;;7.20;99.90;;;;;;5083542;28;20472;-71
2021/11/13 00:07:43;;;;;;;28.67;25.70;;;7.20;99.90;;;;;;5077756;28;20493;-72
2021/11/13 00:10:13;;;;;;;26.53;24.00;;;7.30;99.90;;;;;;5079084;28;20582;-69
2021/11/13 00:12:40;;;;;;;26.77;24.00;;;7.30;99.90;;;;;;5078376;28;20456;-72
2021/11/13 00:15:09;;;;;;;29.63;24.10;;;7.30;99.90;;;;;;5082871;28;20468;-72
2021/11/13 00:17:36;;;;;;;26.93;24.13;;;7.40;99.90;;;;;;5078496;28;20492;-71
2021/11/13 00:20:04;;;;;;;30.53;25.13;;;7.40;99.90;;;;;;5079418;28;20493;-73
2021/11/13 00:22:31;;;;;;;28.77;25.70;;;7.50;99.90;;;;;;5073967;28;20469;-69
2021/11/13 00:24:58;;;;;;;27.33;24.17;;;7.50;99.90;;;;;;5082696;28;21000;-73
2021/11/13 00:27:27;;;;;;;26.63;23.90;;;7.50;99.90;;;;;;5073613;28;20482;-73
2021/11/13 00:29:53;;;;;;;37.10;23.50;;;7.50;99.90;;;;;;5081603;28;20998;-71
2021/11/13 00:32:21;;;;;;;26.80;23.90;;;7.50;99.90;;;;;;5081044;28;21011;-70
2021/11/13 00:34:48;;;;;;;26.60;23.97;;;7.60;99.90;;;;;;5076915;28;20816;-71
2021/11/13 00:37:15;;;;;;;27.90;24.90;;;7.70;99.90;;;;;;5078426;28;20467;-70
2021/11/13 00:39:41;;;;;;;29.00;22.80;;;7.70;99.90;;;;;;5081346;28;20497;-73
2021/11/13 00:42:08;;;;;;;25.50;22.87;;;7.80;99.90;;;;;;5078147;28;20453;-74
2021/11/13 00:44:37;;;;;;;24.50;22.10;;;7.90;99.90;;;;;;5082743;28;20464;-70
2021/11/13 00:47:05;;;;;;;26.47;23.63;;;7.90;99.90;;;;;;5079770;28;20462;-73
2021/11/13 00:49:32;;;;;;;25.70;23.00;;;8.00;99.90;;;;;;5075440;28;20471;-73
2021/11/13 00:51:58;;;;;;;25.90;23.40;;;8.10;99.90;;;;;;5082799;28;20457;-71
2021/11/13 00:54:25;;;;;;;25.20;22.70;;;8.00;99.90;;;;;;5080562;28;20470;-70
2021/11/13 00:56:53;;;;;;;26.70;23.90;;;8.00;99.90;;;;;;5073906;28;20467;-70
2021/11/13 00:59:20;;;;;;;26.30;22.70;;;8.10;99.90;;;;;;5086242;28;20520;-70
2021/11/13 01:01:49;;;;;;;25.40;23.07;;;8.10;99.90;;;;;;5083446;28;20468;-73
2021/11/13 01:04:16;;;;;;;24.60;22.20;;;8.20;99.90;;;;;;5078718;28;20462;-73
2021/11/13 01:06:43;;;;;;;24.30;21.70;;;8.20;99.90;;;;;;5084293;28;20470;-70
2021/11/13 01:09:10;;;;;;;25.50;22.77;;;8.20;99.90;;;;;;5085803;28;20473;-72
2021/11/13 01:11:37;;;;;;;26.57;23.90;;;8.40;99.90;;;;;;5086435;28;20461;-72
2021/11/13 01:14:05;;;;;;;30.20;27.40;;;8.40;99.90;;;;;;5082693;28;20470;-70
2021/11/13 01:16:31;;;;;;;32.13;28.53;;;8.50;99.90;;;;;;5082239;28;20453;-69
2021/11/13 01:19:03;;;;;;;31.60;28.50;;;8.50;99.90;;;;;;5080847;28;20466;-69
2021/11/13 01:21:31;;;;;;;34.97;31.47;;;8.50;99.90;;;;;;5077900;28;20464;-68
2021/11/13 01:23:57;;;;;;;34.73;31.50;;;8.60;99.90;;;;;;5086240;28;20466;-68
2021/11/13 01:26:24;;;;;;;33.83;30.60;;;8.60;99.90;;;;;;5084767;28;20481;-68
2021/11/13 01:28:51;;;;;;;35.00;31.63;;;8.60;99.90;;;;;;5080055;28;20917;-69
2021/11/13 01:31:20;;;;;;;35.60;32.00;;;8.60;99.90;;;;;;5079468;28;20492;-68
2021/11/13 01:33:47;;;;;;;34.93;31.43;;;8.60;99.90;;;;;;5084787;28;20512;-69
2021/11/13 01:36:15;;;;;;;33.97;30.93;;;8.60;99.90;;;;;;5084181;28;20466;-69
2021/11/13 01:38:43;;;;;;;36.57;33.27;;;8.60;99.90;;;;;;5083450;28;20464;-69
2021/11/13 01:41:11;;;;;;;39.27;35.30;;;8.60;99.90;;;;;;5079599;28;20544;-70
2021/11/13 01:43:40;;;;;;;35.07;31.87;;;8.60;99.90;;;;;;5082769;28;20461;-72
2021/11/13 01:46:08;;;;;;;39.07;34.97;;;8.60;99.90;;;;;;5082440;28;20457;-72
2021/11/13 01:48:35;;;;;;;42.40;34.57;;;8.60;99.90;;;;;;5092293;28;20467;-71
2021/11/13 01:51:03;;;;;;;37.83;34.10;;;8.50;99.90;;;;;;5084150;28;20497;-72
2021/11/13 01:53:32;;;;;;;36.60;33.13;;;8.50;99.90;;;;;;5080729;28;21050;-71
2021/11/13 01:55:58;;;;;;;35.33;32.30;;;8.50;99.90;;;;;;5079715;28;20520;-69
2021/11/13 01:58:25;;;;;;;36.93;33.30;;;8.50;99.90;;;;;;5077969;28;20473;-68
2021/11/13 02:00:56;;;;;;;36.33;32.87;;;8.60;99.90;;;;;;5077594;28;20489;-71
2021/11/13 02:03:24;;;;;;;37.47;33.57;;;8.60;99.90;;;;;;5085079;28;20895;-69
2021/11/13 02:05:52;;;;;;;36.37;32.30;;;8.70;99.90;;;;;;5081594;28;20830;-69
2021/11/13 02:08:20;;;;;;;35.77;31.90;;;8.80;99.90;;;;;;5077949;28;20458;-72
2021/11/13 02:10:49;;;;;;;40.27;31.70;;;8.90;99.90;;;;;;5081919;28;21261;-70
2021/11/13 02:13:16;;;;;;;35.13;31.73;;;9.00;99.90;;;;;;5081913;28;20462;-72
2021/11/13 02:15:43;;;;;;;34.53;31.00;;;9.00;99.90;;;;;;5082141;28;20462;-69
2021/11/13 02:18:10;;;;;;;34.40;30.87;;;9.10;99.90;;;;;;5083715;28;20551;-69
2021/11/13 02:20:40;;;;;;;34.97;31.60;;;9.10;99.90;;;;;;5080088;28;20481;-72
2021/11/13 02:23:09;;;;;;;35.10;31.87;;;9.20;99.90;;;;;;5078929;28;20463;-69
2021/11/13 02:25:36;;;;;;;35.07;31.87;;;9.20;99.90;;;;;;5083284;28;20481;-69
2021/11/13 02:28:06;;;;;;;32.97;29.90;;;9.20;99.90;;;;;;5082997;28;20466;-69
2021/11/13 02:30:33;;;;;;;34.50;31.37;;;9.20;99.90;;;;;;5081586;28;20473;-69
2021/11/13 02:33:00;;;;;;;34.80;31.23;;;9.20;99.90;;;;;;5078629;28;20461;-73
2021/11/13 02:35:31;;;;;;;34.90;31.20;;;9.20;99.90;;;;;;5078128;28;20968;-70
2021/11/13 02:38:08;;;;;;;33.13;29.83;;;9.20;99.90;;;;;;5084604;28;20462;-74
2021/11/13 02:40:35;;;;;;;34.23;31.17;;;9.30;99.90;;;;;;5074647;28;20535;-73
2021/11/13 02:43:03;;;;;;;33.50;30.50;;;9.30;99.90;;;;;;5082281;28;20965;-71
2021/11/13 02:45:31;;;;;;;36.87;32.47;;;9.30;99.90;;;;;;5075993;28;20469;-71
2021/11/13 02:48:01;;;;;;;34.30;31.10;;;9.30;99.90;;;;;;5086023;28;20458;-71
2021/11/13 02:50:28;;;;;;;34.53;31.33;;;9.40;99.90;;;;;;5077807;28;20592;-70
2021/11/13 02:53:00;;;;;;;33.87;30.43;;;9.40;99.90;;;;;;5079833;28;20458;-72
2021/11/13 02:55:27;;;;;;;33.87;30.37;;;9.40;99.90;;;;;;5076921;28;20502;-70
2021/11/13 02:57:55;;;;;;;33.50;30.40;;;9.40;99.90;;;;;;5080798;28;20842;-71
2021/11/13 03:00:24;;;;;;;34.80;30.70;;;9.40;99.90;;;;;;5081684;28;20487;-71
2021/11/13 03:02:51;;;;;;;34.53;31.27;;;9.40;99.90;;;;;;5079235;28;20468;-72
2021/11/13 03:05:21;;;;;;;35.97;32.27;;;9.40;99.90;;;;;;5082220;28;20464;-70
2021/11/13 03:07:48;;;;;;;33.60;30.60;;;9.40;99.90;;;;;;5080842;28;20830;-71
2021/11/13 03:10:18;;;;;;;34.10;30.90;;;9.40;99.90;;;;;;5084313;28;20454;-71
2021/11/13 03:12:45;;;;;;;33.37;29.97;;;9.40;99.90;;;;;;5081199;28;20520;-71
2021/11/13 03:15:14;;;;;;;35.23;31.63;;;9.40;99.90;;;;;;5079559;28;20497;-71
2021/11/13 03:17:41;;;;;;;33.80;30.70;;;9.30;99.90;;;;;;5083676;28;21078;-71
2021/11/13 03:20:10;;;;;;;34.50;31.10;;;9.30;99.90;;;;;;5073231;28;20486;-73
2021/11/13 03:22:38;;;;;;;31.30;28.30;;;9.30;99.90;;;;;;5076754;28;20457;-75
2021/11/13 03:25:07;;;;;;;33.07;29.97;;;9.30;99.90;;;;;;5082798;28;20465;-70
2021/11/13 03:27:37;;;;;;;32.57;29.37;;;9.30;99.90;;;;;;5077322;28;20482;-73
2021/11/13 03:30:05;;;;;;;33.20;29.90;;;9.30;99.90;;;;;;5078957;28;20495;-71
2021/11/13 03:32:33;;;;;;;30.23;27.60;;;9.20;99.90;;;;;;5085712;28;20457;-71
2021/11/13 03:35:01;;;;;;;31.80;28.83;;;9.20;99.90;;;;;;5076409;28;20562;-71
2021/11/13 03:37:28;;;;;;;30.80;27.50;;;9.20;99.90;;;;;;5076745;28;20468;-71
2021/11/13 03:39:55;;;;;;;31.60;28.27;;;9.20;99.90;;;;;;5081364;28;20481;-71
2021/11/13 03:42:22;;;;;;;31.53;28.40;;;9.20;99.90;;;;;;5083745;28;20454;-71
2021/11/13 03:44:51;;;;;;;32.83;29.73;;;9.20;99.90;;;;;;5081023;28;20462;-71
2021/11/13 03:47:18;;;;;;;33.17;29.73;;;9.20;99.90;;;;;;5080345;28;20477;-73
2021/11/13 03:49:45;;;;;;;31.37;27.67;;;9.30;99.90;;;;;;5075700;28;20468;-72
2021/11/13 03:52:12;;;;;;;31.03;28.03;;;9.30;99.90;;;;;;5083604;28;20462;-71
2021/11/13 03:54:39;;;;;;;32.00;28.90;;;9.30;99.90;;;;;;5075651;28;20467;-74
2021/11/13 03:57:07;;;;;;;31.80;28.80;;;9.30;99.90;;;;;;5079933;28;20476;-72
2021/11/13 03:59:34;;;;;;;32.97;30.00;;;9.30;99.90;;;;;;5078850;28;20462;-71
2021/11/13 04:02:02;;;;;;;31.17;28.30;;;9.30;99.90;;;;;;5077935;28;21053;-72
2021/11/13 04:04:29;;;;;;;32.40;29.30;;;9.30;99.90;;;;;;5077413;28;21153;-72
2021/11/13 04:06:56;;;;;;;34.53;31.23;;;9.30;99.90;;;;;;5081564;28;20554;-72
2021/11/13 04:09:23;;;;;;;32.27;29.50;;;9.30;99.90;;;;;;5081795;28;20465;-73
2021/11/13 04:11:50;;;;;;;32.30;29.23;;;9.30;99.90;;;;;;5075865;28;20991;-71
2021/11/13 04:14:17;;;;;;;32.97;30.13;;;9.40;99.90;;;;;;5079042;28;20466;-72
2021/11/13 04:16:43;;;;;;;32.30;29.20;;;9.30;99.90;;;;;;5079781;28;20477;-74
2021/11/13 04:19:12;;;;;;;32.47;29.47;;;9.30;99.90;;;;;;5081042;28;20466;-74
2021/11/13 04:21:39;;;;;;;32.10;29.23;;;9.30;99.90;;;;;;5076857;28;21059;-71
2021/11/13 04:24:06;;;;;;;32.40;29.30;;;9.30;99.90;;;;;;5079527;28;20977;-73
2021/11/13 04:26:33;;;;;;;31.40;28.50;;;9.30;99.90;;;;;;5077621;28;20500;-72
2021/11/13 04:29:01;;;;;;;31.03;28.40;;;9.40;99.90;;;;;;5076564;28;20472;-73
2021/11/13 04:31:27;;;;;;;30.87;28.27;;;9.40;99.90;;;;;;5081785;28;20498;-71
2021/11/13 04:34:00;;;;;;;31.67;28.80;;;9.30;99.90;;;;;;5082923;28;20454;-73
2021/11/13 04:36:33;;;;;;;29.83;27.40;;;9.30;99.90;;;;;;5083129;28;20478;-71
2021/11/13 04:39:00;;;;;;;27.30;25.17;;;9.40;99.90;;;;;;5072019;28;20511;-71
2021/11/13 04:41:28;;;;;;;29.03;26.33;;;9.40;99.90;;;;;;5075800;28;20495;-73
2021/11/13 04:43:54;;;;;;;29.00;26.70;;;9.30;99.90;;;;;;5078281;28;20455;-72
2021/11/13 04:46:21;;;;;;;28.03;25.67;;;9.40;99.90;;;;;;5080302;28;20473;-71
2021/11/13 04:48:48;;;;;;;27.20;25.17;;;9.40;99.90;;;;;;5091298;28;20464;-72
2021/11/13 04:51:15;;;;;;;27.53;25.10;;;9.40;99.90;;;;;;5080478;28;20498;-72
2021/11/13 04:53:44;;;;;;;28.63;26.43;;;9.40;99.90;;;;;;5080785;28;20966;-72
2021/11/13 04:56:11;;;;;;;25.50;23.37;;;9.40;99.90;;;;;;5078131;28;20496;-70
2021/11/13 04:58:37;;;;;;;26.63;24.67;;;9.40;99.90;;;;;;5080339;28;20808;-72
2021/11/13 05:01:05;;;;;;;25.87;24.07;;;9.40;99.90;;;;;;5081750;28;20486;-72
2021/11/13 05:03:32;;;;;;;27.43;25.43;;;9.50;99.90;;;;;;5074393;28;20467;-72
2021/11/13 05:05:59;;;;;;;26.93;24.83;;;9.50;99.90;;;;;;5074303;28;20451;-71
2021/11/13 05:08:25;;;;;;;27.80;25.50;;;9.50;99.90;;;;;;5076462;28;20466;-73
2021/11/13 05:10:54;;;;;;;27.97;25.77;;;9.50;99.90;;;;;;5076402;28;20460;-71
2021/11/13 05:13:21;;;;;;;27.73;25.50;;;9.50;99.90;;;;;;5077428;28;20488;-71
2021/11/13 05:15:48;;;;;;;28.40;26.07;;;9.50;99.90;;;;;;5081874;28;20818;-72
2021/11/13 05:18:15;;;;;;;26.23;24.53;;;9.50;99.90;;;;;;5080103;28;21586;-71
2021/11/13 05:20:42;;;;;;;28.60;26.30;;;9.50;99.90;;;;;;5078539;28;20488;-73
2021/11/13 05:23:09;;;;;;;26.97;25.07;;;9.60;99.90;;;;;;5079103;28;20516;-71
2021/11/13 05:25:36;;;;;;;27.67;25.60;;;9.60;99.90;;;;;;5075356;28;20474;-70
2021/11/13 05:28:04;;;;;;;29.20;26.90;;;9.60;99.90;;;;;;5078082;28;20466;-71
2021/11/13 05:30:31;;;;;;;29.10;26.90;;;9.60;99.90;;;;;;5084021;28;20490;-73
2021/11/13 05:32:58;;;;;;;29.77;27.63;;;9.60;99.90;;;;;;5083050;28;20458;-72
2021/11/13 05:35:25;;;;;;;28.93;26.73;;;9.70;99.90;;;;;;5067780;28;21152;-71
2021/11/13 05:37:54;;;;;;;29.30;27.33;;;9.70;99.90;;;;;;5079981;28;20545;-71
2021/11/13 05:40:20;;;;;;;28.63;26.53;;;9.70;99.90;;;;;;5076620;28;20454;-70
2021/11/13 05:42:49;;;;;;;28.10;26.20;;;9.70;99.90;;;;;;5081626;28;20878;-72
2021/11/13 05:45:17;;;;;;;29.00;27.00;;;9.70;99.90;;;;;;5082479;28;20458;-70
2021/11/13 05:47:44;;;;;;;30.07;27.80;;;9.70;99.90;;;;;;5084946;28;20471;-71
2021/11/13 05:50:13;;;;;;;29.10;27.10;;;9.70;99.90;;;;;;5080046;28;20465;-71
2021/11/13 05:52:41;;;;;;;30.53;28.30;;;9.80;99.90;;;;;;5079305;28;20472;-71
2021/11/13 05:55:09;;;;;;;28.43;26.33;;;9.70;99.90;;;;;;5083449;28;20518;-72
2021/11/13 05:57:36;;;;;;;29.93;27.63;;;9.70;99.90;;;;;;5083381;28;20488;-74
2021/11/13 06:00:04;;;;;;;29.40;27.30;;;9.70;99.90;;;;;;5079763;28;20493;-73
2021/11/13 06:02:32;;;;;;;28.77;26.80;;;9.70;99.90;;;;;;5076561;28;20491;-71
2021/11/13 06:05:00;;;;;;;30.50;28.40;;;9.80;99.90;;;;;;5084987;28;20986;-72
2021/11/13 06:07:27;;;;;;;28.97;26.70;;;9.70;99.90;;;;;;5078417;28;20462;-72
2021/11/13 06:09:55;;;;;;;30.10;27.77;;;9.70;99.90;;;;;;5073999;28;20455;-71
2021/11/13 06:12:22;;;;;;;28.83;26.93;;;9.70;99.90;;;;;;5076200;28;20451;-72
2021/11/13 06:14:48;;;;;;;28.03;26.00;;;9.70;99.90;;;;;;5073659;28;20468;-71
2021/11/13 06:17:16;;;;;;;27.83;26.10;;;9.70;99.90;;;;;;5089078;28;20467;-73
2021/11/13 06:19:45;;;;;;;29.00;26.70;;;9.80;99.90;;;;;;5080340;28;20449;-71
2021/11/13 06:22:12;;;;;;;28.17;26.30;;;9.80;99.90;;;;;;5078607;28;20478;-73
2021/11/13 06:24:40;;;;;;;28.20;26.30;;;9.70;99.90;;;;;;5074787;28;20463;-72
2021/11/13 06:27:08;;;;;;;27.63;25.83;;;9.70;99.90;;;;;;5078670;28;20477;-73
2021/11/13 06:29:35;;;;;;;27.20;25.50;;;9.70;99.90;;;;;;5080028;28;20466;-70
2021/11/13 06:32:02;;;;;;;26.70;25.00;;;9.80;99.90;;;;;;5057250;28;20490;-71
2021/11/13 06:34:29;;;;;;;27.47;25.47;;;9.80;99.90;;;;;;5066595;28;20475;-73
2021/11/13 06:36:57;;;;;;;26.50;24.80;;;9.80;99.90;;;;;;5064098;28;20458;-70
2021/11/13 06:39:24;;;;;;;27.17;25.27;;;9.80;99.90;;;;;;5059714;28;20463;-70
2021/11/13 06:41:51;;;;;;;27.20;25.40;;;9.80;99.90;;;;;;5059731;28;20491;-72
2021/11/13 06:44:18;;;;;;;27.40;25.63;;;9.80;99.90;;;;;;5062525;28;20488;-71
2021/11/13 06:46:45;;;;;;;27.40;25.50;;;9.80;99.90;;;;;;5058905;28;20463;-71
2021/11/13 06:49:12;;;;;;;27.03;25.30;;;9.80;99.90;;;;;;5054612;28;20460;-71
2021/11/13 06:51:40;;;;;;;28.80;26.90;;;9.80;99.90;;;;;;5066185;28;20829;-72
2021/11/13 06:54:09;;;;;;;29.10;26.33;;;9.90;99.90;;;;;;5062363;28;20530;-72
2021/11/13 06:56:36;;;;;;;29.10;27.20;;;9.80;99.90;;;;;;5056583;28;20463;-72
2021/11/13 06:59:04;;;;;;;29.70;27.80;;;9.90;99.90;;;;;;5059079;28;20467;-70
2021/11/13 07:01:31;;;;;;;27.80;26.00;;;9.90;99.90;;;;;;5062736;28;20498;-71
2021/11/13 07:03:59;;;;;;;27.93;26.00;;;9.90;99.90;;;;;;5057395;28;20464;-70
2021/11/13 07:06:26;;;;;;;26.97;25.07;;;9.80;99.90;;;;;;5062711;28;21048;-73
2021/11/13 07:08:53;;;;;;;27.60;25.67;;;9.90;99.90;;;;;;5057205;28;20473;-72
2021/11/13 07:11:22;;;;;;;28.40;26.70;;;9.90;99.90;;;;;;5054475;28;20558;-71
2021/11/13 07:13:49;;;;;;;28.33;26.43;;;9.90;99.90;;;;;;5056821;28;20471;-72
2021/11/13 07:16:16;;;;;;;28.47;26.40;;;9.90;99.90;;;;;;5055564;28;20456;-70
2021/11/13 07:18:43;;;;;;;28.43;26.57;;;9.90;99.90;;;;;;5052966;28;20793;-71
2021/11/13 07:21:10;;;;;;;28.90;27.10;;;9.90;99.90;;;;;;5055217;28;20462;-71
2021/11/13 07:23:37;;;;;;;28.67;26.77;;;9.90;99.90;;;;;;5054874;28;20460;-72
2021/11/13 07:26:06;;;;;;;30.20;28.20;;;10.00;99.90;;;;;;5053638;28;20483;-72
2021/11/13 07:28:38;;;;;;;28.30;26.50;;;10.00;99.90;;;;;;5053771;28;20466;-71
2021/11/13 07:31:06;;;;;;;27.70;25.90;;;9.90;99.90;;;;;;5069552;28;20985;-71
2021/11/13 07:33:33;;;;;;;27.13;25.27;;;10.00;99.90;;;;;;5072835;28;20461;-71
2021/11/13 07:36:00;;;;;;;27.00;25.17;;;10.00;99.90;;;;;;5076574;28;20466;-73
2021/11/13 07:38:27;;;;;;;31.03;28.47;;;10.00;99.90;;;;;;5074020;28;20458;-72
2021/11/13 07:40:53;;;;;;;34.87;31.87;;;10.10;99.90;;;;;;5070392;28;20462;-72
2021/11/13 07:43:21;;;;;;;31.20;28.60;;;10.00;99.90;;;;;;5078412;28;20497;-70
2021/11/13 07:45:50;;;;;;;34.70;29.30;;;10.00;99.90;;;;;;5072617;28;20466;-72
2021/11/13 07:48:17;;;;;;;28.60;25.70;;;10.00;99.90;;;;;;5083984;28;20524;-71
2021/11/13 07:50:45;;;;;;;30.17;27.57;;;10.10;99.90;;;;;;5073495;28;20553;-72
2021/11/13 07:53:12;;;;;;;30.27;27.83;;;10.10;99.90;;;;;;5075982;28;20462;-72
2021/11/13 07:55:40;;;;;;;30.30;27.57;;;10.10;99.90;;;;;;5071392;28;20473;-71
2021/11/13 07:58:09;;;;;;;29.17;27.07;;;10.10;99.90;;;;;;5071579;28;20478;-72
2021/11/13 08:00:37;;;;;;;26.60;24.73;;;10.10;99.90;;;;;;5075974;28;20462;-74
2021/11/13 08:03:06;;;;;;;25.97;24.03;;;10.20;99.90;;;;;;5075373;28;20513;-72
2021/11/13 08:05:33;;;;;;;27.67;25.57;;;10.20;99.90;;;;;;5080518;28;20462;-73
2021/11/13 08:08:00;;;;;;;27.17;25.47;;;10.20;99.90;;;;;;5077285;28;20468;-71
2021/11/13 08:10:27;;;;;;;26.20;24.50;;;10.20;99.90;;;;;;5075327;28;20884;-72
2021/11/13 08:12:55;;;;;;;28.43;26.23;;;10.20;99.90;;;;;;5072882;28;20451;-71
2021/11/13 08:15:22;;;;;;;26.07;24.37;;;10.20;99.90;;;;;;5081254;28;20462;-72
2021/11/13 08:17:49;;;;;;;25.70;23.93;;;10.20;99.90;;;;;;5077528;28;20455;-72
2021/11/13 08:20:18;;;;;;;26.07;24.43;;;10.20;99.90;;;;;;5081247;28;20498;-72
2021/11/13 08:22:45;;;;;;;27.07;24.80;;;10.20;99.90;;;;;;5076335;28;20497;-71
2021/11/13 08:25:15;;;;;;;25.90;24.10;;;10.20;99.90;;;;;;5079967;28;20473;-73
2021/11/13 08:27:43;;;;;;;26.40;24.80;;;10.20;99.90;;;;;;5072197;28;20480;-74
2021/11/13 08:30:12;;;;;;;26.20;24.50;;;10.30;99.90;;;;;;5080406;28;20522;-72
2021/11/13 08:32:40;;;;;;;27.90;26.10;;;10.30;99.90;;;;;;5071921;28;20469;-72
2021/11/13 08:35:08;;;;;;;27.60;25.63;;;10.30;99.90;;;;;;5076285;28;20468;-72
2021/11/13 08:37:36;;;;;;;26.50;24.70;;;10.30;99.90;;;;;;5076340;28;20471;-71
2021/11/13 08:40:05;;;;;;;26.27;23.97;;;10.30;99.90;;;;;;5077620;28;20467;-73
2021/11/13 08:42:32;;;;;;;25.00;23.40;;;10.40;99.90;;;;;;5082040;28;20855;-73
2021/11/13 08:44:59;;;;;;;23.70;22.30;;;10.40;99.90;;;;;;5078822;28;20459;-73
2021/11/13 08:47:27;;;;;;;25.17;23.47;;;10.50;99.90;;;;;;5088541;28;20461;-71
2021/11/13 08:49:56;;;;;;;25.50;23.80;;;10.50;99.90;;;;;;5082221;28;20832;-72
2021/11/13 08:52:23;;;;;;;24.07;22.60;;;10.60;99.90;;;;;;5076681;28;20509;-72
2021/11/13 08:54:51;;;;;;;24.83;23.33;;;10.60;99.90;;;;;;5074496;28;20565;-72
2021/11/13 08:57:19;;;;;;;24.17;22.67;;;10.60;99.90;;;;;;5074388;28;20468;-72
2021/11/13 08:59:47;;;;;;;24.90;23.20;;;10.70;99.90;;;;;;5080509;28;20659;-71
2021/11/13 09:02:18;;;;;;;25.03;23.43;;;10.70;99.90;;;;;;5078354;28;20478;-71
2021/11/13 09:04:46;;;;;;;25.80;24.20;;;10.70;99.90;;;;;;5078621;28;20465;-72
2021/11/13 09:07:14;;;;;;;26.47;24.67;;;10.60;99.90;;;;;;5077825;28;20455;-72
2021/11/13 09:09:41;;;;;;;24.33;22.83;;;10.60;99.90;;;;;;5082350;28;20476;-72
2021/11/13 09:12:13;;;;;;;25.70;24.00;;;10.70;99.90;;;;;;5072547;28;20968;-72
2021/11/13 09:14:41;;;;;;;26.63;24.83;;;10.70;99.90;;;;;;5077320;28;21032;-71
2021/11/13 09:17:07;;;;;;;24.43;22.83;;;10.70;99.90;;;;;;5077565;28;20461;-72
2021/11/13 09:19:34;;;;;;;25.20;23.60;;;10.70;99.90;;;;;;5070527;28;20469;-73
2021/11/13 09:22:02;;;;;;;25.93;24.23;;;10.70;99.90;;;;;;5073708;28;20785;-72
2021/11/13 09:24:28;;;;;;;24.33;22.60;;;10.80;99.90;;;;;;5076296;28;20490;-72
2021/11/13 09:26:56;;;;;;;24.00;22.53;;;10.80;99.90;;;;;;5069092;28;20995;-73
2021/11/13 09:29:24;;;;;;;25.47;23.63;;;10.90;99.90;;;;;;5076437;28;20468;-73
2021/11/13 09:31:51;;;;;;;24.57;22.67;;;10.90;99.90;;;;;;5077846;28;20492;-73
2021/11/13 09:34:21;;;;;;;24.27;22.77;;;11.10;99.90;;;;;;5078193;28;20472;-72
2021/11/13 09:36:49;;;;;;;25.03;23.30;;;11.00;99.90;;;;;;5081588;28;20500;-72
2021/11/13 09:39:16;;;;;;;22.83;21.43;;;11.00;99.90;;;;;;5076808;28;20457;-72
2021/11/13 09:41:44;;;;;;;24.10;22.60;;;11.00;99.90;;;;;;5072256;28;20557;-71
2021/11/13 09:44:12;;;;;;;25.93;23.80;;;11.10;99.90;;;;;;5078157;28;20460;-71
2021/11/13 09:46:40;;;;;;;26.27;24.37;;;11.20;99.90;;;;;;5074571;28;20469;-70
2021/11/13 09:49:08;;;;;;;25.63;23.93;;;11.00;99.90;;;;;;5070051;28;20454;-70
2021/11/13 09:51:35;;;;;;;27.20;25.20;;;11.10;99.90;;;;;;5077234;28;20465;-68
2021/11/13 09:54:02;;;;;;;25.40;23.70;;;11.30;99.90;;;;;;5078832;28;20461;-70
2021/11/13 09:56:30;;;;;;;27.27;25.07;;;11.30;99.90;;;;;;5077416;28;20549;-70
2021/11/13 09:58:58;;;;;;;26.50;24.70;;;11.20;99.90;;;;;;5079179;28;20453;-69
2021/11/13 10:01:26;;;;;;;26.90;24.90;;;11.30;99.90;;;;;;5071148;28;20585;-70
2021/11/13 10:03:54;;;;;;;28.53;26.03;;;11.40;99.90;;;;;;5073277;28;20518;-70
2021/11/13 10:06:21;;;;;;;27.30;25.13;;;11.50;99.90;;;;;;5079031;28;20752;-71
2021/11/13 10:08:50;;;;;;;24.97;23.17;;;11.50;99.90;;;;;;5082213;28;20466;-69
2021/11/13 10:11:19;;;;;;;25.70;24.10;;;11.50;99.90;;;;;;5076865;28;20458;-71
2021/11/13 10:13:51;;;;;;;26.37;24.37;;;11.60;99.90;;;;;;5075425;28;20467;-71
2021/11/13 10:16:22;;;;;;;26.40;24.37;;;11.60;99.90;;;;;;5078970;28;20466;-73
2021/11/13 10:18:51;;;;;;;26.37;24.23;;;11.70;99.90;;;;;;5074300;28;20465;-72
2021/11/13 10:21:21;;;;;;;25.27;23.40;;;11.80;99.90;;;;;;5078292;28;20840;-72
2021/11/13 10:23:50;;;;;;;26.23;23.77;;;12.00;99.90;;;;;;5074019;28;20498;-72
2021/11/13 10:26:21;;;;;;;25.10;23.27;;;12.00;99.90;;;;;;5079251;28;20500;-73
2021/11/13 10:28:53;;;;;;;25.93;23.93;;;12.10;99.90;;;;;;5075049;28;20474;-71
2021/11/13 10:31:24;;;;;;;24.37;22.20;;;12.30;99.90;;;;;;5068593;28;20494;-72
2021/11/13 10:33:53;;;;;;;24.37;22.67;;;12.40;99.90;;;;;;5078790;28;20463;-70
2021/11/13 10:36:28;;;;;;;23.23;21.33;;;12.50;99.90;;;;;;5073359;28;20502;-72
2021/11/13 10:39:01;;;;;;;26.23;22.37;;;12.50;99.90;;;;;;5071416;28;20462;-72
2021/11/13 10:41:29;;;;;;;23.07;21.30;;;12.40;99.90;;;;;;5074711;28;20461;-74
2021/11/13 10:43:56;;;;;;;23.10;21.20;;;12.40;99.90;;;;;;5070629;28;20848;-70
2021/11/13 10:46:25;;;;;;;23.90;22.10;;;12.40;99.90;;;;;;5074303;28;20458;-71
2021/11/13 10:48:54;;;;;;;23.30;21.50;;;12.30;99.90;;;;;;5073858;28;20467;-70
2021/11/13 10:51:25;;;;;;;24.63;21.67;;;12.30;99.90;;;;;;5082645;28;20463;-74
2021/11/13 10:53:52;;;;;;;22.60;20.80;;;12.10;99.90;;;;;;5081180;28;20528;-73
2021/11/13 10:56:21;;;;;;;22.83;20.80;;;12.10;99.90;;;;;;5076126;28;20457;-70
2021/11/13 10:58:59;;;;;;;22.43;20.63;;;12.10;99.90;;;;;;5074992;28;20463;-74
2021/11/13 11:01:35;;;;;;;22.93;21.10;;;12.20;99.90;;;;;;5070107;28;20459;-70
2021/11/13 11:04:09;;;;;;;24.57;22.23;;;12.40;99.90;;;;;;5075585;28;20500;-73
2021/11/13 11:06:38;;;;;;;22.10;20.50;;;12.30;99.90;;;;;;5076665;28;20872;-71
2021/11/13 11:09:27;;;;;;;23.20;20.90;;;12.30;99.90;;;;;;5079396;28;20458;-71
2021/11/13 11:11:56;;;;;;;22.63;21.03;;;12.40;99.90;;;;;;5064232;28;20463;-74
2021/11/13 11:14:25;;;;;;;23.20;21.40;;;12.30;99.90;;;;;;5073341;28;20966;-70
2021/11/13 11:16:54;;;;;;;22.33;20.83;;;12.30;99.90;;;;;;5072505;28;20542;-71
2021/11/13 11:19:23;;;;;;;22.37;20.67;;;12.50;99.90;;;;;;5075467;28;20463;-71
2021/11/13 11:21:54;;;;;;;21.70;19.80;;;12.60;99.90;;;;;;5076388;28;20479;-71
2021/11/13 11:24:24;;;;;;;22.20;20.70;;;12.60;99.90;;;;;;5071491;28;20606;-70
2021/11/13 11:26:58;;;;;;;22.63;21.10;;;12.50;99.90;;;;;;5072347;28;20487;-70
2021/11/13 11:29:26;;;;;;;21.80;20.17;;;12.60;99.90;;;;;;5069805;28;20469;-70
2021/11/13 11:31:56;;;;;;;23.70;21.90;;;12.50;99.90;;;;;;5074932;28;20493;-70
2021/11/13 11:34:35;;;;;;;23.57;21.47;;;12.40;99.90;;;;;;5078774;28;20549;-70
2021/11/13 11:37:12;;;;;;;22.80;21.17;;;12.40;99.90;;;;;;5068266;28;20537;-73
2021/11/13 11:39:40;;;;;;;23.47;21.37;;;12.30;99.90;;;;;;5078533;28;20496;-70
2021/11/13 11:42:08;;;;;;;22.77;20.80;;;12.10;99.90;;;;;;5078683;28;20463;-72
2021/11/13 11:44:37;;;;;;;25.30;23.17;;;12.20;99.90;;;;;;5074218;28;20493;-70
2021/11/13 11:47:09;;;;;;;24.27;22.03;;;12.20;99.90;;;;;;5078452;28;20507;-72
2021/11/13 11:49:40;;;;;;;22.40;20.37;;;12.10;99.90;;;;;;5070074;28;20491;-70
2021/11/13 11:52:08;;;;;;;20.77;19.47;;;12.10;99.90;;;;;;5073680;28;20447;-70
2021/11/13 11:54:36;;;;;;;22.23;20.73;;;11.80;99.90;;;;;;5077448;28;20462;-71
2021/11/13 11:57:03;;;;;;;22.97;21.23;;;11.80;99.90;;;;;;5072301;28;20596;-69
2021/11/13 11:59:32;;;;;;;23.77;21.77;;;11.90;99.90;;;;;;5075136;28;20470;-70
2021/11/13 12:02:11;;;;;;;23.83;21.70;;;11.90;99.90;;;;;;5078297;28;20575;-69
2021/11/13 12:04:39;;;;;;;24.37;22.13;;;11.90;99.90;;;;;;5068942;28;20851;-73
2021/11/13 12:07:07;;;;;;;23.73;21.63;;;12.00;99.90;;;;;;5068194;28;20477;-69
2021/11/13 12:09:55;;;;;;;23.37;21.57;;;12.10;99.90;;;;;;5074139;28;20545;-71
2021/11/13 12:12:22;;;;;;;24.97;22.70;;;12.20;99.90;;;;;;5068538;28;20827;-69
2021/11/13 12:14:49;;;;;;;28.00;25.47;;;12.20;99.90;;;;;;5077473;28;20498;-69
2021/11/13 12:17:34;;;;;;;28.10;25.70;;;12.00;99.90;;;;;;5074212;28;20470;-70
2021/11/13 12:20:25;;;;;;;26.83;24.40;;;12.00;99.90;;;;;;5067597;28;21046;-71
2021/11/13 12:23:05;;;;;;;28.33;26.20;;;11.90;99.90;;;;;;5075778;28;20578;-72
2021/11/13 12:25:36;;;;;;;29.07;26.40;;;11.90;99.90;;;;;;5070746;28;20822;-70
2021/11/13 12:28:10;;;;;;;27.43;25.53;;;12.00;99.90;;;;;;5080727;28;20457;-69
2021/11/13 12:30:41;;;;;;;28.30;26.37;;;12.00;99.90;;;;;;5069458;28;20500;-71
2021/11/13 12:33:40;;;;;;;28.40;26.27;;;12.00;99.90;;;;;;5069677;28;20473;-71
2021/11/13 12:36:11;;;;;;;27.07;25.10;;;12.00;99.90;;;;;;5075407;28;20493;-72
2021/11/13 12:38:43;;;;;;;27.70;25.67;;;12.00;99.90;;;;;;5074036;28;20545;-71